sensor_id;sensor_type;location;lat;lon;timestamp;pressure;altitude;pressure_sealevel;temperature;humidity
10466;BME280;5280;42.600;23.556;2023-01-09T00:00:14;93675.53;;;1.96;100.00
10466;BME280;5280;42.600;23.556;2023-01-09T00:02:41;93686.09;;;1.93;100.00
10466;BME280;5280;42.600;23.556;2023-01-09T00:05:09;93676.53;;;1.93;100.00
10466;BME280;5280;42.600;23.556;2023-01-09T00:07:36;93671.16;;;1.96;100.00
10466;BME280;5280;42.600;23.556;2023-01-09T00:10:04;93661.97;;;1.88;100.00
10466;BME280;5280;42.600;23.556;2023-01-09T00:12:31;93652.00;;;1.77;100.00
10466;BME280;5280;42.600;23.556;2023-01-09T00:14:58;93674.81;;;1.92;100.00
10466;BME280;5280;42.600;23.556;2023-01-09T00:17:26;93673.06;;;1.93;100.00
10466;BME280;5280;42.600;23.556;2023-01-09T00:19:53;93625.28;;;1.52;100.00
10466;BME280;5280;42.600;23.556;2023-01-09T00:22:20;93663.09;;;1.82;100.00
10466;BME280;5280;42.600;23.556;2023-01-09T00:24:47;93658.72;;;1.83;100.00
10466;BME280;5280;42.600;23.556;2023-01-09T00:27:18;93656.56;;;1.72;100.00
10466;BME280;5280;42.600;23.556;2023-01-09T00:29:45;93656.06;;;1.84;100.00
10466;BME280;5280;42.600;23.556;2023-01-09T00:32:13;93648.97;;;1.88;100.00
10466;BME280;5280;42.600;23.556;2023-01-09T00:34:41;93635.28;;;1.83;100.00
10466;BME280;5280;42.600;23.556;2023-01-09T00:37:08;93656.44;;;1.95;100.00
10466;BME280;5280;42.600;23.556;2023-01-09T00:39:37;93656.31;;;1.98;100.00
10466;BME280;5280;42.600;23.556;2023-01-09T00:42:04;93651.03;;;2.00;100.00
10466;BME280;5280;42.600;23.556;2023-01-09T00:44:35;93645.06;;;1.98;100.00
10466;BME280;5280;42.600;23.556;2023-01-09T00:47:07;93650.00;;;2.04;100.00
10466;BME280;5280;42.600;23.556;2023-01-09T00:49:38;93635.13;;;1.86;100.00
10466;BME280;5280;42.600;23.556;2023-01-09T00:52:08;93640.09;;;1.92;100.00
10466;BME280;5280;42.600;23.556;2023-01-09T00:54:37;93651.56;;;1.88;100.00
10466;BME280;5280;42.600;23.556;2023-01-09T00:57:04;93649.72;;;1.90;100.00
10466;BME280;5280;42.600;23.556;2023-01-09T00:59:31;93655.59;;;1.95;100.00
10466;BME280;5280;42.600;23.556;2023-01-09T01:01:58;93647.00;;;1.93;100.00
10466;BME280;5280;42.600;23.556;2023-01-09T01:04:25;93628.63;;;1.76;100.00
10466;BME280;5280;42.600;23.556;2023-01-09T01:07:11;93648.91;;;1.89;100.00
10466;BME280;5280;42.600;23.556;2023-01-09T01:09:55;93647.31;;;1.85;100.00
10466;BME280;5280;42.600;23.556;2023-01-09T01:12:22;93652.66;;;1.82;100.00
10466;BME280;5280;42.600;23.556;2023-01-09T01:14:49;93637.22;;;1.78;100.00
10466;BME280;5280;42.600;23.556;2023-01-09T01:17:15;93626.25;;;1.69;100.00
10466;BME280;5280;42.600;23.556;2023-01-09T01:19:42;93649.91;;;1.85;100.00
10466;BME280;5280;42.600;23.556;2023-01-09T01:22:10;93651.50;;;1.89;100.00
10466;BME280;5280;42.600;23.556;2023-01-09T01:24:37;93654.94;;;1.90;100.00
10466;BME280;5280;42.600;23.556;2023-01-09T01:27:04;93636.31;;;1.79;100.00
10466;BME280;5280;42.600;23.556;2023-01-09T01:29:30;93641.84;;;1.91;100.00
10466;BME280;5280;42.600;23.556;2023-01-09T01:31:57;93599.41;;;1.69;100.00
10466;BME280;5280;42.600;23.556;2023-01-09T01:34:24;93617.94;;;1.82;100.00
10466;BME280;5280;42.600;23.556;2023-01-09T01:36:51;93623.66;;;1.90;100.00
10466;BME280;5280;42.600;23.556;2023-01-09T01:39:19;93628.88;;;1.90;100.00
10466;BME280;5280;42.600;23.556;2023-01-09T01:41:46;93610.19;;;1.80;100.00
10466;BME280;5280;42.600;23.556;2023-01-09T01:47:18;93582.72;;;1.53;100.00
10466;BME280;5280;42.600;23.556;2023-01-09T01:49:46;93619.59;;;1.84;100.00
10466;BME280;5280;42.600;23.556;2023-01-09T01:52:13;93619.50;;;1.86;100.00
10466;BME280;5280;42.600;23.556;2023-01-09T01:54:43;93618.13;;;1.77;100.00
10466;BME280;5280;42.600;23.556;2023-01-09T01:57:11;93620.81;;;1.76;100.00
10466;BME280;5280;42.600;23.556;2023-01-09T01:59:39;93586.47;;;1.66;100.00
10466;BME280;5280;42.600;23.556;2023-01-09T02:02:11;93608.56;;;1.78;100.00
10466;BME280;5280;42.600;23.556;2023-01-09T02:04:38;93605.13;;;1.77;100.00
10466;BME280;5280;42.600;23.556;2023-01-09T02:07:07;93594.19;;;1.69;100.00
10466;BME280;5280;42.600;23.556;2023-01-09T02:09:35;93588.84;;;1.72;100.00
10466;BME280;5280;42.600;23.556;2023-01-09T02:12:15;93580.22;;;1.70;100.00
10466;BME280;5280;42.600;23.556;2023-01-09T02:14:42;93586.44;;;1.67;100.00
10466;BME280;5280;42.600;23.556;2023-01-09T02:17:17;93593.44;;;1.65;100.00
10466;BME280;5280;42.600;23.556;2023-01-09T02:20:23;93578.34;;;1.53;100.00
10466;BME280;5280;42.600;23.556;2023-01-09T02:23:08;93581.84;;;1.52;100.00
10466;BME280;5280;42.600;23.556;2023-01-09T02:25:55;93572.72;;;1.42;100.00
10466;BME280;5280;42.600;23.556;2023-01-09T02:28:52;93566.47;;;1.46;100.00
10466;BME280;5280;42.600;23.556;2023-01-09T02:31:28;93543.16;;;1.23;100.00
10466;BME280;5280;42.600;23.556;2023-01-09T02:34:02;93564.06;;;1.42;100.00
10466;BME280;5280;42.600;23.556;2023-01-09T02:36:38;93575.19;;;1.45;100.00
10466;BME280;5280;42.600;23.556;2023-01-09T02:39:19;93573.88;;;1.35;100.00
10466;BME280;5280;42.600;23.556;2023-01-09T02:41:51;93482.28;;;0.85;100.00
10466;BME280;5280;42.600;23.556;2023-01-09T02:44:23;93570.75;;;1.27;100.00
10466;BME280;5280;42.600;23.556;2023-01-09T02:47:02;93562.63;;;1.35;100.00
10466;BME280;5280;42.600;23.556;2023-01-09T02:49:30;93568.94;;;1.29;100.00
10466;BME280;5280;42.600;23.556;2023-01-09T02:52:08;93569.66;;;1.33;100.00
10466;BME280;5280;42.600;23.556;2023-01-09T02:54:47;93555.38;;;1.21;100.00
10466;BME280;5280;42.600;23.556;2023-01-09T02:57:30;93581.84;;;1.32;100.00
10466;BME280;5280;42.600;23.556;2023-01-09T03:00:08;93572.28;;;1.33;100.00
10466;BME280;5280;42.600;23.556;2023-01-09T03:02:46;93569.06;;;1.26;100.00
10466;BME280;5280;42.600;23.556;2023-01-09T03:05:21;93574.16;;;1.29;100.00
10466;BME280;5280;42.600;23.556;2023-01-09T03:07:55;93577.63;;;1.29;100.00
10466;BME280;5280;42.600;23.556;2023-01-09T03:10:29;93579.88;;;1.37;100.00
10466;BME280;5280;42.600;23.556;2023-01-09T03:12:58;93582.50;;;1.37;100.00
10466;BME280;5280;42.600;23.556;2023-01-09T03:15:29;93577.41;;;1.34;100.00
10466;BME280;5280;42.600;23.556;2023-01-09T03:17:59;93584.94;;;1.40;100.00
10466;BME280;5280;42.600;23.556;2023-01-09T03:20:26;93576.38;;;1.38;100.00
10466;BME280;5280;42.600;23.556;2023-01-09T03:22:57;93567.66;;;1.39;100.00
10466;BME280;5280;42.600;23.556;2023-01-09T03:25:25;93541.53;;;1.20;100.00
10466;BME280;5280;42.600;23.556;2023-01-09T03:27:55;93564.31;;;1.36;100.00
10466;BME280;5280;42.600;23.556;2023-01-09T03:30:23;93565.16;;;1.36;100.00
10466;BME280;5280;42.600;23.556;2023-01-09T03:32:51;93571.03;;;1.41;100.00
10466;BME280;5280;42.600;23.556;2023-01-09T03:35:19;93534.56;;;1.21;100.00
10466;BME280;5280;42.600;23.556;2023-01-09T03:37:46;93546.63;;;1.23;100.00
10466;BME280;5280;42.600;23.556;2023-01-09T03:40:12;93580.69;;;1.39;100.00
10466;BME280;5280;42.600;23.556;2023-01-09T03:42:42;93549.59;;;1.14;100.00
10466;BME280;5280;42.600;23.556;2023-01-09T03:45:09;93577.16;;;1.40;100.00
10466;BME280;5280;42.600;23.556;2023-01-09T03:47:36;93576.81;;;1.27;100.00
10466;BME280;5280;42.600;23.556;2023-01-09T03:50:03;93574.16;;;1.29;100.00
10466;BME280;5280;42.600;23.556;2023-01-09T03:52:32;93580.78;;;1.36;100.00
10466;BME280;5280;42.600;23.556;2023-01-09T03:55:00;93561.53;;;1.40;100.00
10466;BME280;5280;42.600;23.556;2023-01-09T03:57:27;93548.44;;;1.42;100.00
10466;BME280;5280;42.600;23.556;2023-01-09T03:59:53;93557.13;;;1.62;100.00
10466;BME280;5280;42.600;23.556;2023-01-09T04:02:20;93564.69;;;1.68;100.00
10466;BME280;5280;42.600;23.556;2023-01-09T04:04:47;93561.81;;;1.54;100.00
10466;BME280;5280;42.600;23.556;2023-01-09T04:07:13;93575.66;;;1.55;100.00
10466;BME280;5280;42.600;23.556;2023-01-09T04:09:42;93585.97;;;1.58;100.00
10466;BME280;5280;42.600;23.556;2023-01-09T04:12:08;93567.53;;;1.62;100.00
10466;BME280;5280;42.600;23.556;2023-01-09T04:14:35;93563.88;;;1.46;100.00
10466;BME280;5280;42.600;23.556;2023-01-09T04:17:02;93552.41;;;1.50;100.00
10466;BME280;5280;42.600;23.556;2023-01-09T04:19:28;93578.66;;;1.66;100.00
10466;BME280;5280;42.600;23.556;2023-01-09T04:21:55;93560.63;;;1.61;100.00
10466;BME280;5280;42.600;23.556;2023-01-09T04:24:22;93563.69;;;1.71;100.00
10466;BME280;5280;42.600;23.556;2023-01-09T04:26:50;93567.19;;;1.70;100.00
10466;BME280;5280;42.600;23.556;2023-01-09T04:29:17;93548.91;;;1.71;100.00
10466;BME280;5280;42.600;23.556;2023-01-09T04:31:43;93552.31;;;1.73;100.00
10466;BME280;5280;42.600;23.556;2023-01-09T04:34:10;93552.41;;;1.70;100.00
10466;BME280;5280;42.600;23.556;2023-01-09T04:36:37;93547.34;;;1.67;100.00
10466;BME280;5280;42.600;23.556;2023-01-09T04:39:04;93549.91;;;1.69;100.00
10466;BME280;5280;42.600;23.556;2023-01-09T04:41:31;93550.84;;;1.46;100.00
10466;BME280;5280;42.600;23.556;2023-01-09T04:44:18;93536.94;;;1.47;100.00
10466;BME280;5280;42.600;23.556;2023-01-09T04:46:45;93551.00;;;1.43;100.00
10466;BME280;5280;42.600;23.556;2023-01-09T04:49:15;93551.50;;;1.51;100.00
10466;BME280;5280;42.600;23.556;2023-01-09T04:51:42;93545.25;;;1.55;100.00
10466;BME280;5280;42.600;23.556;2023-01-09T04:54:11;93547.16;;;1.52;100.00
10466;BME280;5280;42.600;23.556;2023-01-09T04:56:38;93544.34;;;1.56;100.00
10466;BME280;5280;42.600;23.556;2023-01-09T04:59:05;93536.94;;;1.67;100.00
10466;BME280;5280;42.600;23.556;2023-01-09T05:01:34;93540.56;;;1.84;100.00
10466;BME280;5280;42.600;23.556;2023-01-09T05:04:01;93526.09;;;1.77;100.00
10466;BME280;5280;42.600;23.556;2023-01-09T05:06:28;93546.09;;;1.76;100.00
10466;BME280;5280;42.600;23.556;2023-01-09T05:08:55;93551.50;;;1.71;100.00
10466;BME280;5280;42.600;23.556;2023-01-09T05:11:22;93557.25;;;1.59;100.00
10466;BME280;5280;42.600;23.556;2023-01-09T05:13:52;93542.59;;;1.57;100.00
10466;BME280;5280;42.600;23.556;2023-01-09T05:16:19;93541.09;;;1.51;100.00
10466;BME280;5280;42.600;23.556;2023-01-09T05:18:47;93514.84;;;1.36;100.00
10466;BME280;5280;42.600;23.556;2023-01-09T05:21:14;93512.00;;;1.42;100.00
10466;BME280;5280;42.600;23.556;2023-01-09T05:23:41;93431.25;;;1.03;100.00
10466;BME280;5280;42.600;23.556;2023-01-09T05:26:07;93504.91;;;1.45;100.00
10466;BME280;5280;42.600;23.556;2023-01-09T05:28:34;93538.88;;;1.62;100.00
10466;BME280;5280;42.600;23.556;2023-01-09T05:31:01;93532.63;;;1.66;100.00
10466;BME280;5280;42.600;23.556;2023-01-09T05:33:28;93534.97;;;1.72;100.00
10466;BME280;5280;42.600;23.556;2023-01-09T05:35:56;93537.97;;;1.84;100.00
10466;BME280;5280;42.600;23.556;2023-01-09T05:38:22;93527.56;;;1.84;100.00
10466;BME280;5280;42.600;23.556;2023-01-09T05:40:49;93527.78;;;1.98;100.00
10466;BME280;5280;42.600;23.556;2023-01-09T05:43:16;93530.69;;;2.10;100.00
10466;BME280;5280;42.600;23.556;2023-01-09T05:45:43;93528.50;;;2.20;100.00
10466;BME280;5280;42.600;23.556;2023-01-09T05:48:09;93539.78;;;2.21;100.00
10466;BME280;5280;42.600;23.556;2023-01-09T05:50:36;93500.41;;;2.08;100.00
10466;BME280;5280;42.600;23.556;2023-01-09T05:53:04;93518.91;;;2.21;100.00
10466;BME280;5280;42.600;23.556;2023-01-09T05:55:31;93510.88;;;2.25;100.00
10466;BME280;5280;42.600;23.556;2023-01-09T05:57:58;93498.44;;;2.32;100.00
10466;BME280;5280;42.600;23.556;2023-01-09T06:00:24;93526.91;;;2.36;100.00
10466;BME280;5280;42.600;23.556;2023-01-09T06:02:51;93521.53;;;2.39;100.00
10466;BME280;5280;42.600;23.556;2023-01-09T06:05:18;93519.56;;;2.44;100.00
10466;BME280;5280;42.600;23.556;2023-01-09T06:07:44;93520.72;;;2.39;100.00
10466;BME280;5280;42.600;23.556;2023-01-09T06:10:14;93518.91;;;2.39;100.00
10466;BME280;5280;42.600;23.556;2023-01-09T06:12:41;93465.09;;;2.20;100.00
10466;BME280;5280;42.600;23.556;2023-01-09T06:15:09;93512.53;;;2.46;100.00
10466;BME280;5280;42.600;23.556;2023-01-09T06:17:36;93518.09;;;2.57;100.00
10466;BME280;5280;42.600;23.556;2023-01-09T06:20:07;93516.13;;;2.63;100.00
10466;BME280;5280;42.600;23.556;2023-01-09T06:22:34;93526.38;;;2.66;100.00
10466;BME280;5280;42.600;23.556;2023-01-09T06:25:01;93519.81;;;2.76;100.00
10466;BME280;5280;42.600;23.556;2023-01-09T06:27:29;93503.25;;;2.77;100.00
10466;BME280;5280;42.600;23.556;2023-01-09T06:29:56;93519.38;;;2.85;100.00
10466;BME280;5280;42.600;23.556;2023-01-09T06:32:22;93517.56;;;2.87;100.00
10466;BME280;5280;42.600;23.556;2023-01-09T06:34:49;93495.28;;;2.80;100.00
10466;BME280;5280;42.600;23.556;2023-01-09T06:37:16;93495.50;;;2.75;100.00
10466;BME280;5280;42.600;23.556;2023-01-09T06:39:42;93522.41;;;2.94;100.00
10466;BME280;5280;42.600;23.556;2023-01-09T06:42:09;93496.13;;;2.80;100.00
10466;BME280;5280;42.600;23.556;2023-01-09T06:44:37;93518.88;;;2.95;100.00
10466;BME280;5280;42.600;23.556;2023-01-09T06:47:04;93508.38;;;2.97;100.00
10466;BME280;5280;42.600;23.556;2023-01-09T06:49:32;93504.13;;;2.94;100.00
10466;BME280;5280;42.600;23.556;2023-01-09T06:51:59;93497.03;;;2.79;100.00
10466;BME280;5280;42.600;23.556;2023-01-09T06:54:30;93507.19;;;2.85;100.00
10466;BME280;5280;42.600;23.556;2023-01-09T06:56:56;93497.00;;;2.98;100.00
10466;BME280;5280;42.600;23.556;2023-01-09T06:59:23;93478.84;;;2.78;100.00
10466;BME280;5280;42.600;23.556;2023-01-09T07:01:51;93491.63;;;2.84;100.00
10466;BME280;5280;42.600;23.556;2023-01-09T07:04:18;93501.06;;;2.86;100.00
10466;BME280;5280;42.600;23.556;2023-01-09T07:06:47;93505.59;;;3.00;100.00
10466;BME280;5280;42.600;23.556;2023-01-09T07:09:14;93455.81;;;2.69;100.00
10466;BME280;5280;42.600;23.556;2023-01-09T07:11:41;93501.28;;;2.99;100.00
10466;BME280;5280;42.600;23.556;2023-01-09T07:14:08;93503.78;;;3.02;100.00
10466;BME280;5280;42.600;23.556;2023-01-09T07:16:34;93501.09;;;3.03;100.00
10466;BME280;5280;42.600;23.556;2023-01-09T07:19:02;93500.88;;;3.08;100.00
10466;BME280;5280;42.600;23.556;2023-01-09T07:21:29;93490.72;;;3.02;100.00
10466;BME280;5280;42.600;23.556;2023-01-09T07:23:56;93499.91;;;3.09;100.00
10466;BME280;5280;42.600;23.556;2023-01-09T07:26:23;93494.50;;;3.14;100.00
10466;BME280;5280;42.600;23.556;2023-01-09T07:28:49;93500.63;;;3.13;100.00
10466;BME280;5280;42.600;23.556;2023-01-09T07:31:16;93487.66;;;3.11;100.00
10466;BME280;5280;42.600;23.556;2023-01-09T07:33:43;93499.63;;;3.15;100.00
10466;BME280;5280;42.600;23.556;2023-01-09T07:36:11;93496.41;;;3.10;100.00
10466;BME280;5280;42.600;23.556;2023-01-09T07:38:37;93506.94;;;3.26;100.00
10466;BME280;5280;42.600;23.556;2023-01-09T07:41:05;93496.66;;;3.23;100.00
10466;BME280;5280;42.600;23.556;2023-01-09T07:43:31;93490.88;;;3.16;100.00
10466;BME280;5280;42.600;23.556;2023-01-09T07:45:58;93496.94;;;3.17;100.00
10466;BME280;5280;42.600;23.556;2023-01-09T07:48:25;93489.06;;;3.18;100.00
10466;BME280;5280;42.600;23.556;2023-01-09T07:50:51;93511.47;;;3.22;100.00
10466;BME280;5280;42.600;23.556;2023-01-09T07:53:20;93513.91;;;3.25;100.00
10466;BME280;5280;42.600;23.556;2023-01-09T07:55:46;93518.00;;;3.31;100.00
10466;BME280;5280;42.600;23.556;2023-01-09T07:58:13;93529.44;;;3.45;100.00
10466;BME280;5280;42.600;23.556;2023-01-09T08:00:40;93532.84;;;3.47;100.00
10466;BME280;5280;42.600;23.556;2023-01-09T08:03:07;93534.38;;;3.52;100.00
10466;BME280;5280;42.600;23.556;2023-01-09T08:05:34;93529.78;;;3.57;100.00
10466;BME280;5280;42.600;23.556;2023-01-09T08:08:00;93537.91;;;3.68;100.00
10466;BME280;5280;42.600;23.556;2023-01-09T08:10:29;93542.31;;;3.67;100.00
10466;BME280;5280;42.600;23.556;2023-01-09T08:12:55;93538.06;;;3.82;100.00
10466;BME280;5280;42.600;23.556;2023-01-09T08:15:22;93523.78;;;3.72;100.00
10466;BME280;5280;42.600;23.556;2023-01-09T08:17:49;93527.59;;;3.82;100.00
10466;BME280;5280;42.600;23.556;2023-01-09T08:20:16;93524.59;;;3.89;100.00
10466;BME280;5280;42.600;23.556;2023-01-09T08:22:45;93549.25;;;4.01;100.00
10466;BME280;5280;42.600;23.556;2023-01-09T08:25:15;93551.69;;;4.04;100.00
10466;BME280;5280;42.600;23.556;2023-01-09T08:27:43;93544.94;;;4.00;100.00
10466;BME280;5280;42.600;23.556;2023-01-09T08:30:14;93551.00;;;4.18;100.00
10466;BME280;5280;42.600;23.556;2023-01-09T08:32:41;93547.13;;;4.25;100.00
10466;BME280;5280;42.600;23.556;2023-01-09T08:35:09;93525.47;;;4.23;100.00
10466;BME280;5280;42.600;23.556;2023-01-09T08:37:35;93534.66;;;4.30;100.00
10466;BME280;5280;42.600;23.556;2023-01-09T08:40:02;93542.78;;;4.41;100.00
10466;BME280;5280;42.600;23.556;2023-01-09T08:42:29;93543.28;;;4.32;100.00
10466;BME280;5280;42.600;23.556;2023-01-09T08:45:15;93535.25;;;4.35;100.00
10466;BME280;5280;42.600;23.556;2023-01-09T08:47:59;93531.66;;;4.38;100.00
10466;BME280;5280;42.600;23.556;2023-01-09T08:50:26;93529.19;;;4.34;100.00
10466;BME280;5280;42.600;23.556;2023-01-09T08:52:52;93531.47;;;4.41;100.00
10466;BME280;5280;42.600;23.556;2023-01-09T08:55:19;93525.63;;;4.36;100.00
10466;BME280;5280;42.600;23.556;2023-01-09T08:57:46;93499.91;;;4.28;100.00
10466;BME280;5280;42.600;23.556;2023-01-09T09:00:21;93518.94;;;4.63;100.00
10466;BME280;5280;42.600;23.556;2023-01-09T09:02:50;93518.84;;;4.64;100.00
10466;BME280;5280;42.600;23.556;2023-01-09T09:05:17;93516.81;;;4.69;100.00
10466;BME280;5280;42.600;23.556;2023-01-09T09:07:46;93510.84;;;4.83;100.00
10466;BME280;5280;42.600;23.556;2023-01-09T09:10:14;93518.44;;;4.88;100.00
10466;BME280;5280;42.600;23.556;2023-01-09T09:12:40;93507.78;;;5.06;100.00
10466;BME280;5280;42.600;23.556;2023-01-09T09:15:08;93500.56;;;5.10;100.00
10466;BME280;5280;42.600;23.556;2023-01-09T09:17:39;93495.78;;;5.18;100.00
10466;BME280;5280;42.600;23.556;2023-01-09T09:20:07;93488.56;;;5.22;100.00
10466;BME280;5280;42.600;23.556;2023-01-09T09:22:34;93492.94;;;5.37;100.00
10466;BME280;5280;42.600;23.556;2023-01-09T09:25:01;93487.69;;;5.37;99.48
10466;BME280;5280;42.600;23.556;2023-01-09T09:27:29;93488.53;;;5.37;100.00
10466;BME280;5280;42.600;23.556;2023-01-09T09:29:55;93480.22;;;5.45;99.61
10466;BME280;5280;42.600;23.556;2023-01-09T09:32:22;93471.84;;;5.38;97.32
10466;BME280;5280;42.600;23.556;2023-01-09T09:34:50;93462.22;;;5.39;100.00
10466;BME280;5280;42.600;23.556;2023-01-09T09:37:17;93454.41;;;5.53;98.49
10466;BME280;5280;42.600;23.556;2023-01-09T09:39:44;93456.50;;;5.62;98.66
10466;BME280;5280;42.600;23.556;2023-01-09T09:42:38;93422.56;;;5.45;95.52
10466;BME280;5280;42.600;23.556;2023-01-09T09:45:35;93433.28;;;5.70;96.01
10466;BME280;5280;42.600;23.556;2023-01-09T09:48:15;93422.25;;;5.79;96.19
10466;BME280;5280;42.600;23.556;2023-01-09T09:51:01;93417.47;;;5.72;94.69
10466;BME280;5280;42.600;23.556;2023-01-09T09:53:38;93405.94;;;5.74;92.76
10466;BME280;5280;42.600;23.556;2023-01-09T09:56:11;93388.16;;;5.65;92.90
10466;BME280;5280;42.600;23.556;2023-01-09T09:58:40;93355.63;;;5.53;91.85
10466;BME280;5280;42.600;23.556;2023-01-09T10:01:08;93388.72;;;5.84;92.43
10466;BME280;5280;42.600;23.556;2023-01-09T10:03:40;93379.72;;;5.74;92.80
10466;BME280;5280;42.600;23.556;2023-01-09T10:06:15;93391.34;;;5.84;93.38
10466;BME280;5280;42.600;23.556;2023-01-09T10:08:50;93381.97;;;5.80;92.84
10466;BME280;5280;42.600;23.556;2023-01-09T10:11:24;93360.94;;;5.96;94.05
10466;BME280;5280;42.600;23.556;2023-01-09T10:13:53;93348.41;;;5.87;93.98
10466;BME280;5280;42.600;23.556;2023-01-09T10:16:50;93332.34;;;5.77;94.78
10466;BME280;5280;42.600;23.556;2023-01-09T10:19:30;93340.03;;;5.80;95.33
10466;BME280;5280;42.600;23.556;2023-01-09T10:22:08;93324.66;;;5.74;95.19
10466;BME280;5280;42.600;23.556;2023-01-09T10:24:53;93310.81;;;5.72;96.41
10466;BME280;5280;42.600;23.556;2023-01-09T10:27:28;93303.81;;;5.73;96.53
10466;BME280;5280;42.600;23.556;2023-01-09T10:30:05;93299.94;;;5.78;94.36
10466;BME280;5280;42.600;23.556;2023-01-09T10:32:46;93295.16;;;5.85;94.27
10466;BME280;5280;42.600;23.556;2023-01-09T10:35:32;93289.34;;;5.94;94.09
10466;BME280;5280;42.600;23.556;2023-01-09T10:38:04;93278.75;;;6.10;92.48
10466;BME280;5280;42.600;23.556;2023-01-09T10:40:37;93275.53;;;6.19;92.53
10466;BME280;5280;42.600;23.556;2023-01-09T10:43:10;93247.81;;;6.15;91.53
10466;BME280;5280;42.600;23.556;2023-01-09T10:45:43;93265.50;;;6.38;89.14
10466;BME280;5280;42.600;23.556;2023-01-09T10:48:19;93268.69;;;6.43;89.26
10466;BME280;5280;42.600;23.556;2023-01-09T10:50:50;93262.72;;;6.54;88.22
10466;BME280;5280;42.600;23.556;2023-01-09T10:53:22;93262.13;;;6.63;87.53
10466;BME280;5280;42.600;23.556;2023-01-09T10:55:55;93263.81;;;6.64;88.22
10466;BME280;5280;42.600;23.556;2023-01-09T10:58:24;93247.50;;;6.46;88.86
10466;BME280;5280;42.600;23.556;2023-01-09T11:00:51;93268.66;;;6.57;87.28
10466;BME280;5280;42.600;23.556;2023-01-09T11:03:20;93262.34;;;6.60;86.66
10466;BME280;5280;42.600;23.556;2023-01-09T11:05:49;93200.28;;;6.19;85.69
10466;BME280;5280;42.600;23.556;2023-01-09T11:08:23;93257.78;;;6.49;86.38
10466;BME280;5280;42.600;23.556;2023-01-09T11:10:54;93223.00;;;6.33;86.89
10466;BME280;5280;42.600;23.556;2023-01-09T11:13:22;93231.00;;;6.44;87.91
10466;BME280;5280;42.600;23.556;2023-01-09T11:15:59;93241.50;;;6.44;87.46
10466;BME280;5280;42.600;23.556;2023-01-09T11:18:26;93263.84;;;6.37;88.09
10466;BME280;5280;42.600;23.556;2023-01-09T11:20:53;93175.03;;;5.91;87.83
10466;BME280;5280;42.600;23.556;2023-01-09T11:23:25;93252.94;;;6.43;88.90
10466;BME280;5280;42.600;23.556;2023-01-09T11:25:54;93259.34;;;6.39;88.16
10466;BME280;5280;42.600;23.556;2023-01-09T11:28:22;93216.41;;;6.13;88.15
10466;BME280;5280;42.600;23.556;2023-01-09T11:30:54;93232.94;;;6.28;88.81
10466;BME280;5280;42.600;23.556;2023-01-09T11:33:23;93229.19;;;6.32;89.79
10466;BME280;5280;42.600;23.556;2023-01-09T11:36:03;93230.69;;;6.36;88.64
10466;BME280;5280;42.600;23.556;2023-01-09T11:38:45;93229.13;;;6.46;89.19
10466;BME280;5280;42.600;23.556;2023-01-09T11:41:16;93227.22;;;6.48;87.39
10466;BME280;5280;42.600;23.556;2023-01-09T11:43:45;93169.09;;;6.15;87.23
10466;BME280;5280;42.600;23.556;2023-01-09T11:46:30;93221.78;;;6.51;88.28
10466;BME280;5280;42.600;23.556;2023-01-09T11:48:58;93225.34;;;6.50;87.32
10466;BME280;5280;42.600;23.556;2023-01-09T11:51:27;93230.59;;;6.50;87.09
10466;BME280;5280;42.600;23.556;2023-01-09T11:54:05;93203.13;;;6.29;86.76
10466;BME280;5280;42.600;23.556;2023-01-09T11:56:36;93228.28;;;6.45;88.20
10466;BME280;5280;42.600;23.556;2023-01-09T11:59:09;93201.88;;;6.22;88.21
10466;BME280;5280;42.600;23.556;2023-01-09T12:04:51;93208.38;;;6.16;89.06
10466;BME280;5280;42.600;23.556;2023-01-09T12:07:33;93221.66;;;6.13;88.55
10466;BME280;5280;42.600;23.556;2023-01-09T12:10:22;93207.19;;;6.08;88.89
10466;BME280;5280;42.600;23.556;2023-01-09T12:12:57;93209.84;;;5.93;89.70
10466;BME280;5280;42.600;23.556;2023-01-09T12:15:32;93198.50;;;5.93;89.47
10466;BME280;5280;42.600;23.556;2023-01-09T12:18:15;93191.69;;;5.76;89.85
10466;BME280;5280;42.600;23.556;2023-01-09T12:21:05;93195.47;;;5.72;90.24
10466;BME280;5280;42.600;23.556;2023-01-09T12:23:48;93201.09;;;5.66;90.21
10466;BME280;5280;42.600;23.556;2023-01-09T12:26:23;93197.25;;;5.72;90.38
10466;BME280;5280;42.600;23.556;2023-01-09T12:29:00;93186.22;;;5.67;90.41
10466;BME280;5280;42.600;23.556;2023-01-09T12:31:40;93169.84;;;5.49;91.03
10466;BME280;5280;42.600;23.556;2023-01-09T12:34:26;93193.91;;;5.55;91.33
10466;BME280;5280;42.600;23.556;2023-01-09T12:37:04;93175.75;;;5.52;91.28
10466;BME280;5280;42.600;23.556;2023-01-09T12:39:43;93176.44;;;5.42;91.56
10466;BME280;5280;42.600;23.556;2023-01-09T12:42:28;93179.06;;;5.42;92.04
10466;BME280;5280;42.600;23.556;2023-01-09T12:45:00;93177.91;;;5.46;92.25
10466;BME280;5280;42.600;23.556;2023-01-09T12:47:43;93160.03;;;5.38;92.63
10466;BME280;5280;42.600;23.556;2023-01-09T12:50:26;93174.72;;;5.55;92.80
10466;BME280;5280;42.600;23.556;2023-01-09T12:53:05;93121.44;;;5.28;92.21
10466;BME280;5280;42.600;23.556;2023-01-09T12:55:38;93173.19;;;5.65;91.49
10466;BME280;5280;42.600;23.556;2023-01-09T12:58:11;93151.22;;;5.53;91.23
10466;BME280;5280;42.600;23.556;2023-01-09T13:00:43;93159.16;;;5.66;90.64
10466;BME280;5280;42.600;23.556;2023-01-09T13:03:16;93151.63;;;5.74;90.13
10466;BME280;5280;42.600;23.556;2023-01-09T13:05:46;93133.22;;;5.61;90.29
10466;BME280;5280;42.600;23.556;2023-01-09T13:08:18;93124.06;;;5.54;90.94
10466;BME280;5280;42.600;23.556;2023-01-09T13:10:51;93127.50;;;5.42;91.89
10466;BME280;5280;42.600;23.556;2023-01-09T13:13:27;93125.72;;;5.43;92.43
10466;BME280;5280;42.600;23.556;2023-01-09T13:15:58;93118.97;;;5.39;92.58
10466;BME280;5280;42.600;23.556;2023-01-09T13:18:32;93106.75;;;5.25;93.62
10466;BME280;5280;42.600;23.556;2023-01-09T13:21:00;93114.59;;;5.25;93.96
10466;BME280;5280;42.600;23.556;2023-01-09T13:23:32;93116.47;;;5.23;93.06
10466;BME280;5280;42.600;23.556;2023-01-09T13:26:03;93119.56;;;5.30;93.51